< < Back
Terminal Aerodrome Forecast


Current Version              Previous Versions:   1  2  3  4  5  6  7  8  9  

Terminal Aerodrome Forecast

304
FTUS44 KOHX 212300
TAFBNA
TAF
KBNA 212328Z 2200/2224 10005KT P6SM BKN050
     FM220200 16005KT P6SM BKN080
     FM221400 18013KT P6SM SCT080 BKN200=

Latest METAR

494
SAUS70 KWBC 220300 RRB
MTRBNA
METAR KBNA 220253Z 14004KT 10SM BKN065 07/M04 A3037 RMK AO2 SLP286
T00721044 58001


USA.gov is the U.S. government's official web portal to all federal, state and local government web resources and services.